createdAt,value
2022-11-17T05:01:46.218Z,96.79
2022-11-17T05:05:57.794Z,97.17
2022-11-17T05:10:10.834Z,95.66
2022-11-17T05:14:24.486Z,96.16
2022-11-17T05:18:36.002Z,96.47
2022-11-17T05:23:07.042Z,96.15
2022-11-17T05:27:19.244Z,96.52
2022-11-17T05:31:31.143Z,96.76
2022-11-17T05:35:42.643Z,96.47
2022-11-17T05:39:54.172Z,96.10
2022-11-17T05:44:05.795Z,95.88
2022-11-17T05:48:17.311Z,96.05
2022-11-17T05:52:28.817Z,95.21
2022-11-17T05:56:46.132Z,94.84
2022-11-17T06:00:58.015Z,94.59
2022-11-17T06:05:09.604Z,94.00
2022-11-17T06:09:21.208Z,93.94
2022-11-17T06:13:33.001Z,93.38
2022-11-17T06:18:03.763Z,92.83
2022-11-17T06:22:15.420Z,92.96
2022-11-17T06:26:27.144Z,93.49
2022-11-17T06:30:40.158Z,92.85
2022-11-17T06:34:55.626Z,92.38
2022-11-17T06:39:07.930Z,93.88
2022-11-17T06:43:19.447Z,95.97
2022-11-17T06:47:30.932Z,97.22
2022-11-17T06:51:45.317Z,95.79
2022-11-17T06:56:05.750Z,93.85
2022-11-17T07:00:17.840Z,93.65
2022-11-17T07:04:29.338Z,95.29
2022-11-17T07:08:40.829Z,94.93
2022-11-17T07:12:52.517Z,94.91
2022-11-17T07:17:04.027Z,97.17
2022-11-17T07:21:15.616Z,97.40
2022-11-17T07:25:27.096Z,98.51
2022-11-17T07:29:38.574Z,99.33
2022-11-17T07:33:50.386Z,100.00
2022-11-17T07:38:01.947Z,100.00
2022-11-17T07:42:13.454Z,100.00
2022-11-17T07:46:25.172Z,100.00
2022-11-17T07:50:39.678Z,100.00
2022-11-17T07:54:51.187Z,100.00
2022-11-17T07:59:02.720Z,100.00
2022-11-17T08:03:14.254Z,99.27
2022-11-17T08:07:25.855Z,97.80
2022-11-17T08:11:37.409Z,98.12
2022-11-17T08:15:48.871Z,96.20
2022-11-17T08:20:00.356Z,96.72
2022-11-17T08:24:12.446Z,97.58
2022-11-17T08:28:23.960Z,98.32
2022-11-17T08:32:36.084Z,99.16
2022-11-17T08:36:47.553Z,99.66
2022-11-17T08:41:02.187Z,100.00
2022-11-17T08:45:13.979Z,100.00
2022-11-17T08:49:25.490Z,98.69
2022-11-17T08:53:37.028Z,98.55
2022-11-17T08:57:48.549Z,98.24
2022-11-17T09:02:00.764Z,97.98
2022-11-17T09:06:13.020Z,97.41
2022-11-17T09:10:24.978Z,98.06
2022-11-17T09:14:36.490Z,98.92
2022-11-17T09:18:48.046Z,99.28
2022-11-17T09:23:01.234Z,99.97
2022-11-17T09:27:13.785Z,99.42
2022-11-17T09:31:25.547Z,100.00
2022-11-17T09:35:37.087Z,100.00
2022-11-17T09:39:48.584Z,100.00
2022-11-17T09:44:39.799Z,100.00
2022-11-17T09:49:03.115Z,100.00
2022-11-17T09:53:36.683Z,100.00
2022-11-17T09:57:54.743Z,100.00
2022-11-17T10:02:10.150Z,100.00
2022-11-17T10:06:31.832Z,100.00
2022-11-17T10:10:51.073Z,100.00
2022-11-17T10:15:21.635Z,100.00
2022-11-17T10:19:36.598Z,100.00
2022-11-17T10:23:57.061Z,100.00
2022-11-17T10:28:23.566Z,100.00
2022-11-17T10:32:48.489Z,100.00
2022-11-17T10:37:06.322Z,100.00
2022-11-17T10:41:24.066Z,100.00
2022-11-17T10:45:35.594Z,100.00
2022-11-17T10:49:47.101Z,99.83
2022-11-17T10:54:16.738Z,99.13
2022-11-17T10:58:33.063Z,98.32
2022-11-17T11:02:45.379Z,100.00
2022-11-17T11:07:20.669Z,100.00
2022-11-17T11:11:43.173Z,100.00
2022-11-17T11:15:54.917Z,99.49
2022-11-17T11:20:13.822Z,99.24
2022-11-17T11:24:46.416Z,99.19
2022-11-17T11:29:25.032Z,99.31
2022-11-17T11:33:39.520Z,99.65
2022-11-17T11:38:28.192Z,97.38
2022-11-17T11:43:00.295Z,98.10
2022-11-17T11:47:26.224Z,97.92
2022-11-17T11:51:38.847Z,96.20
2022-11-17T11:56:12.025Z,97.39
2022-11-17T12:00:23.635Z,96.68
2022-11-17T12:04:45.481Z,93.71
2022-11-17T12:09:13.015Z,95.27
2022-11-17T12:13:25.697Z,93.90
2022-11-17T12:17:54.255Z,94.95
2022-11-17T12:22:05.795Z,96.01
2022-11-17T12:26:27.714Z,94.42
2022-11-17T12:30:45.221Z,94.16
2022-11-17T12:35:23.421Z,95.09
2022-11-17T12:40:01.597Z,95.64
2022-11-17T12:44:31.848Z,95.40
2022-11-17T12:48:58.660Z,96.51
2022-11-17T12:53:11.938Z,94.96
2022-11-17T12:57:33.279Z,93.33
2022-11-17T13:02:03.848Z,93.44
2022-11-17T13:10:48.337Z,95.01
2022-11-17T13:15:05.181Z,95.67
2022-11-17T13:19:43.833Z,97.80
2022-11-17T13:23:57.026Z,98.67
2022-11-17T13:28:28.985Z,98.64
2022-11-17T13:32:41.857Z,99.49
2022-11-17T13:36:59.132Z,98.71
2022-11-17T13:41:10.615Z,98.62
2022-11-17T13:45:22.549Z,98.36
2022-11-17T13:49:38.669Z,99.02
2022-11-17T13:54:00.298Z,100.00
2022-11-17T13:58:27.199Z,100.00
2022-11-17T14:02:58.177Z,100.00
2022-11-17T14:07:11.897Z,100.00
2022-11-17T14:11:23.588Z,100.00
2022-11-17T14:15:38.593Z,100.00
2022-11-17T14:19:50.214Z,100.00
2022-11-17T14:24:05.265Z,100.00
2022-11-17T14:28:19.269Z,100.00
2022-11-17T14:32:32.295Z,100.00
2022-11-17T14:36:43.926Z,100.00
2022-11-17T14:40:55.451Z,100.00
2022-11-17T14:45:12.190Z,100.00
2022-11-17T14:49:23.671Z,100.00
2022-11-17T14:53:39.184Z,100.00
2022-11-17T14:57:53.643Z,100.00
2022-11-17T15:02:05.191Z,100.00
2022-11-17T15:06:19.922Z,100.00
2022-11-17T15:10:31.773Z,100.00
2022-11-17T15:14:43.526Z,100.00
2022-11-17T15:18:55.022Z,100.00
2022-11-17T15:23:06.493Z,100.00
2022-11-17T15:27:17.987Z,100.00
2022-11-17T15:31:29.817Z,100.00
2022-11-17T15:35:41.560Z,100.00
2022-11-17T15:39:53.638Z,100.00
2022-11-17T15:44:05.224Z,100.00
2022-11-17T15:48:18.886Z,100.00
2022-11-17T15:52:56.765Z,100.00
2022-11-17T15:57:02.760Z,100.00
2022-11-17T16:01:16.595Z,100.00
2022-11-17T16:05:28.258Z,100.00
2022-11-17T16:09:39.756Z,100.00
2022-11-17T16:13:58.913Z,100.00
2022-11-17T16:18:10.676Z,100.00
2022-11-17T16:22:22.211Z,100.00
2022-11-17T16:26:33.724Z,100.00
2022-11-17T16:30:45.214Z,100.00
2022-11-17T16:34:56.964Z,100.00
2022-11-17T16:39:11.703Z,100.00
2022-11-17T16:43:23.438Z,100.00
2022-11-17T16:47:35.673Z,100.00
2022-11-17T16:51:49.546Z,100.00
2022-11-17T16:56:09.419Z,100.00
2022-11-17T17:00:21.003Z,100.00
2022-11-17T17:04:32.534Z,100.00
2022-11-17T17:08:44.714Z,100.00
2022-11-17T17:12:56.256Z,100.00
2022-11-17T17:17:07.732Z,100.00
2022-11-17T17:21:19.503Z,100.00
2022-11-17T17:25:31.067Z,100.00
2022-11-17T17:29:42.552Z,100.00
2022-11-17T17:33:54.836Z,100.00
2022-11-17T17:38:06.324Z,100.00
2022-11-17T17:42:17.846Z,100.00
2022-11-17T17:46:30.738Z,100.00
2022-11-17T17:50:42.325Z,100.00
2022-11-17T17:54:53.806Z,100.00
2022-11-17T17:59:05.313Z,100.00
2022-11-17T18:03:16.899Z,100.00
2022-11-17T18:07:28.496Z,100.00
2022-11-17T18:11:47.712Z,100.00
2022-11-17T18:16:02.090Z,100.00
2022-11-17T18:20:13.640Z,100.00
2022-11-17T18:24:25.273Z,100.00
2022-11-17T18:28:38.838Z,100.00
2022-11-17T18:32:50.402Z,100.00
2022-11-17T18:37:02.133Z,100.00
2022-11-17T18:41:16.198Z,100.00
2022-11-17T18:45:28.293Z,100.00
2022-11-17T18:49:39.856Z,100.00
2022-11-17T18:53:52.758Z,100.00
2022-11-17T18:58:04.248Z,100.00
2022-11-17T19:02:15.755Z,100.00
2022-11-17T19:06:27.727Z,100.00
2022-11-17T19:10:39.313Z,100.00
2022-11-17T19:14:50.842Z,100.00
2022-11-17T19:19:02.797Z,100.00
2022-11-17T19:23:14.374Z,100.00
2022-11-17T19:27:25.921Z,100.00
2022-11-17T19:31:37.945Z,100.00
2022-11-17T19:35:49.444Z,100.00
2022-11-17T19:40:00.915Z,100.00
2022-11-17T19:44:12.445Z,100.00
2022-11-17T19:48:23.939Z,100.00
2022-11-17T19:52:35.412Z,100.00
2022-11-17T19:56:46.993Z,100.00
2022-11-17T20:00:58.576Z,100.00
2022-11-17T20:05:11.119Z,100.00
2022-11-17T20:09:22.810Z,100.00
2022-11-17T20:13:35.095Z,100.00
2022-11-17T20:17:46.569Z,100.00
2022-11-17T20:21:58.061Z,100.00
2022-11-17T20:26:14.557Z,100.00
2022-11-17T20:30:26.223Z,100.00
2022-11-17T20:34:37.722Z,100.00
2022-11-17T20:38:51.482Z,100.00
2022-11-17T20:43:02.993Z,100.00
2022-11-17T20:47:14.942Z,100.00
2022-11-17T20:51:26.867Z,100.00
2022-11-17T20:55:38.452Z,100.00
2022-11-17T20:59:49.932Z,100.00
2022-11-17T21:04:01.475Z,100.00
2022-11-17T21:08:12.962Z,100.00
2022-11-17T21:12:24.437Z,100.00
2022-11-17T21:16:41.302Z,100.00
2022-11-17T21:20:56.932Z,100.00
2022-11-17T21:25:08.799Z,100.00
2022-11-17T21:29:20.503Z,100.00
2022-11-17T21:33:32.257Z,100.00
2022-11-17T21:37:43.761Z,100.00
2022-11-17T21:41:55.818Z,100.00
2022-11-17T21:46:10.058Z,100.00
2022-11-17T21:50:21.553Z,100.00
2022-11-17T21:54:33.058Z,100.00
2022-11-17T21:58:44.540Z,100.00
2022-11-17T22:02:57.437Z,100.00
2022-11-17T22:07:08.949Z,100.00
2022-11-17T22:11:38.134Z,100.00
2022-11-17T22:15:50.081Z,100.00
2022-11-17T22:20:01.564Z,100.00
2022-11-17T22:24:13.204Z,100.00
2022-11-17T22:28:25.630Z,100.00
